Manuel Castro

Recruteur en chef - Eibar
9 Déc 2027
Jeudi
Processus

Personnalité

Adaptabilité (11) Ambition (18) Controverse (4) Loyauté (6) Pression (11) Professionnalisme (20) Sportivité (2) Tempérament (15)

Profil

Style d'entraînement Démocratique
Diplôme National B
Détermination 9
Gestion des joueurs 6
Motivation 10
Discipline 6
Satisfaction professionnelle
91%
Fatigue
0%
Rôle Recruteur en chef
Salaire 74.7K p/s
Contrat 14.03.2028

Performance

Comportement Bon
Efficacité de l'entraînement
26%
Développement des joueurs
55%
Prévention des blessures
20%
Mise en place tactique
20%

Événements récents

A évalué un joueur maintenant
A participé à une réunion de recrutement maintenant
A recommandé une cible de transfert maintenant
A participé à une réunion de recrutement maintenant
A participé à une réunion de recrutement 7j
A recommandé une cible de transfert 7j
A participé à une réunion de recrutement 7j
A observé un match 7j

Suivi en cours

139
Joueur Club Statut Capacité Confiance Observé Dernière observation Dernier vote
David Damboama El-Kanemi Warriors Actif 85 / 109 40% 2 08.12.2027 -
Hervin Goyes Deportivo Pasto Actif 110 / 94 40% 2 08.12.2027 -
Bautista Reinhardt Hrvatski Dragovoljac Actif 86 / 94 40% 1 08.12.2027 -
Caleb Yirenkyi Coventry City Actif 144 / 146 40% 10 07.12.2027 -
Samuel Posada Leones Actif 96 / 93 40% 2 07.12.2027 -
Ricky Atletico Venezuela Actif 106 / 119 40% 5 07.12.2027 -
Joel Ezra Enyimba Actif 92 / 108 40% 4 06.12.2027 -
Olaniyi Saheed Kwara United Actif 88 / 107 40% 3 06.12.2027 -
Tiago Gordillo San Miguel Actif 90 / 77 40% 1 06.12.2027 -
Ignacio Fernández Boston River Actif 95 / 113 40% 2 24.11.2027 -
Celías Ingenthron Vélez Actif 123 / 130 40% 2 24.11.2027 -
Ulises Giménez River Plate Actif 104 / 133 40% 1 24.11.2027 -
Agustín Obregón River Plate Actif 123 / 114 40% 2 22.11.2027 -
Juan Morán Godoy Cruz Actif 110 / 97 40% 1 22.11.2027 -
Jhon Cortez Barranquilla Actif 83 / 106 40% 1 22.11.2027 -
Axel Tape Bayer Leverkusen Actif 126 / 126 40% 2 20.11.2027 -
Felipe Obradovich Ferro Carril Oeste Actif 99 / 102 40% 2 19.11.2027 -
Mads Bomholt Stabaek Actif 115 / 112 40% 1 19.11.2027 -
Hosea Michael Remo Stars Actif 84 / 80 40% 1 19.11.2027 -
Christos Mouzakitis Hull City Actif 142 / 144 40% 9 11.11.2027 -
Marvelous Freedom Ikorodu City Actif 86 / 104 40% 1 11.11.2027 -
Julián Bazán Philadelphia Union Actif 118 / 127 40% 1 11.11.2027 -
Sebastián Ramírez Jaguares Actif 109 / 110 40% 2 10.11.2027 -
Tobías Andrada Virtus Entella Actif 126 / 128 40% 1 10.11.2027 -
Cristian Guzmán Universitario Popayan Actif 85 / 106 40% 3 09.11.2027 -
Mauro Carrizo Atlético Tucumán Actif 92 / 92 40% 1 09.11.2027 -
Daniel Gomez Valledupar Actif 85 / 82 40% 1 09.11.2027 -
Lucas Camejo River Plate Actif 95 / 88 40% 1 07.11.2027 -
Bahia Criciuma Actif 116 / 128 40% 1 07.11.2027 -
Ángel Aguayo Sol de America Actif 102 / 105 40% 1 05.11.2027 -
Gift Udoh Ikorodu City Actif 86 / 106 40% 1 05.11.2027 -
Mikkel Hope Haugesund Actif 97 / 98 40% 1 03.11.2027 -
Juan Camilo Córdoba Deportivo Pereira Actif 75 / 104 40% 1 03.11.2027 -
Ronan Kpakio Cardiff City Actif 120 / 131 40% 1 03.11.2027 -
Luis Otávio Colorado Rapids Actif 110 / 121 40% 2 02.11.2027 -
Nicolas Sport Recife Actif 115 / 126 40% 1 02.11.2027 -
Esteban de Lima Tacuarembo Actif 91 / 87 40% 1 11.10.2027 -
Issa Yusuf Shooting Stars Actif 86 / 92 40% 1 07.10.2027 -
Martín Jiménez Audax Italiano Actif 100 / 113 40% 1 04.10.2027 -
Juan Diego Perdomo Depor Actif 94 / 76 40% 1 04.10.2027 -
Samuel Martín Millonarios Actif 116 / 128 40% 1 04.10.2027 -
Marcus Forss Girona Rapport prêt 114 / 109 72% 1 19.07.2027 -
Leo Castledine Middlesbrough Actif 136 / 144 40% 1 12.07.2027 -
Gianluca Prestianni Benfica Actif 137 / 135 40% 1 12.07.2027 -
Yusi Alavés Actif 137 / 145 40% 10 28.06.2027 -
Lander Astiazarán Real Sociedad Actif 100 / 103 67% 2 28.06.2027 Observer
Shea Lacey Wolverhampton Actif 124 / 128 40% 1 28.06.2027 -
Dion Beljo Standard Liege Négociation 131 / 132 66% 1 01.06.2027 -
Pablo Solari Galatasaray Négociation 128 / 128 68% 1 01.06.2027 -
Davide Bartesaghi AC Milan Actif 133 / 140 40% 6 31.05.2027 -
Jon Garro Real Sociedad Actif 84 / 101 40% 3 30.05.2027 -
David Valencia Alianza Petrolera Actif 128 / 122 40% 2 30.05.2027 -
Adam Bakoune Ospitaletto Actif 94 / 96 40% 1 29.05.2027 -
Jofre Torrents Ajax Actif 130 / 138 40% 6 27.05.2027 -
Leandro Martins Benfica Actif 93 / 88 40% 2 27.05.2027 -
Josh King Chelsea Actif 144 / 138 40% 6 24.05.2027 -
Lucas Høgsberg RC Strasbourg Actif 139 / 136 40% 8 24.05.2027 -
Percy Jali Free State Stars Actif 101 / 89 40% 3 24.05.2027 -
José Pachuca Puebla Actif 103 / 129 40% 6 21.05.2027 -
Samuel Lucero Defensa y Justicia Actif 117 / 132 40% 3 20.05.2027 -
Yussif Saidu Zaragoza Actif 117 / 134 40% 5 20.05.2027 -
Jan Bürger Gillingham Actif 104 / 115 40% 4 19.05.2027 -
Sascha Britschgi Padova Actif 120 / 128 40% 1 18.05.2027 -
Dylan Lawlor Cardiff City Actif 118 / 126 40% 4 17.05.2027 -
Nazareno Kihm Ferro Carril Oeste Actif 118 / 134 40% 2 16.05.2027 -
Toni Tamarit Alverca Actif 109 / 133 40% 2 14.05.2027 -
Matías Gómez Granada Actif 107 / 117 40% 2 12.05.2027 -
Kevin Vazquez Cruz Azul Actif 130 / 137 40% 13 10.05.2027 -
Finn Jeltsch VfB Stuttgart Actif 142 / 133 40% 2 06.05.2027 -
Izan Merino Málaga Actif 116 / 127 40% 6 03.05.2027 -
Kazunari Kita Real Sociedad Actif 93 / 94 40% 2 03.05.2027 -
Johan Manzambi Newcastle United Actif 136 / 142 40% 1 03.05.2027 -
Christ Inao Oulaï Fiorentina Actif 134 / 133 40% 5 01.05.2027 -
Bernardo Lima Porto Actif 92 / 111 40% 2 01.05.2027 -
Darryl Bakola Padova Actif 112 / 108 40% 1 01.05.2027 -
Zane Albarus Cambridge United Actif 92 / 111 40% 2 30.04.2027 -
Daniel Vernattus Metalist Actif 83 / 82 40% 1 30.04.2027 -
Riley Owen Trento Actif 101 / 118 40% 1 29.04.2027 -
Pietro Reggiori Pro Patria Actif 95 / 95 40% 1 28.04.2027 -
Matvey Kislyak CSKA Moscow Actif 130 / 146 40% 2 19.04.2027 -
Lucas Agazzi Defensor Sporting Actif 123 / 123 40% 2 18.04.2027 -
David Ozoh Derby County Actif 122 / 135 40% 2 18.04.2027 -
Ibrahim Maza Bayer Leverkusen Actif 151 / 139 40% 6 17.04.2027 -
Martim Cunha Porto Actif 101 / 110 40% 2 17.04.2027 -
Taras Mykhavko Dynamo Kyiv Actif 131 / 144 40% 1 16.04.2027 -
Keagan Tau Ajax Cape Town Actif 99 / 95 40% 3 15.04.2027 -
Juan Giménez Celta Actif 119 / 126 40% 1 12.04.2027 -
Ernie Weaver AFC Wimbledon Actif 110 / 110 40% 1 11.04.2027 -
Mpho Khethang AS Police Actif 75 / 85 40% 1 06.04.2027 -
Pape Diong Westerlo Actif 105 / 116 40% 1 31.03.2027 -
Zaïd BafdilI Sporting CP Actif 84 / 92 40% 1 28.03.2027 -
Keagan Phiri Platinum Stars Actif 102 / 101 40% 1 22.03.2027 -
Tiago Freitas Benfica Actif 115 / 114 40% 2 18.03.2027 -
Joaquin Seys Club Brugge Actif 132 / 124 40% 1 18.03.2027 -
Cemran Dansin Orlando Pirates Actif 116 / 111 40% 2 17.03.2027 -
Joel McGregor Swindon Town Actif 87 / 110 40% 1 16.03.2027 -
James Dornelly Peterborough United Actif 106 / 101 40% 1 11.03.2027 -
Hlompho Lorch Ajax Cape Town Actif 94 / 112 40% 1 11.03.2027 -
Gonçalo Oliveira Benfica Actif 101 / 125 40% 1 09.03.2027 -
Ronwen Phiri Platinum Stars Actif 103 / 94 40% 1 09.03.2027 -
Noah Nartey Olympique Lyonnais Actif 131 / 129 40% 1 08.03.2027 -
Andreas Trimmel Red Bull Salzburg Actif 131 / 131 60% 1 01.01.2027 -
Nicolò Tresoldi Club Brugge Perdu 129 / 133 67% 1 01.01.2027 -
Ethan Williams Peterborough United Actif 110 / 115 40% 1 31.12.2026 -
Kyriani Sabbe Club Brugge Actif 114 / 138 40% 1 30.12.2026 -
Warren Zaïre-Emery Paris Saint-Germain Actif 154 / 160 40% 1 30.12.2026 -
Malick Fofana Sunderland Actif 144 / 154 40% 2 29.12.2026 -
Endrick Real Madrid Actif 140 / 146 40% 1 29.12.2026 -
Jesús Rodríguez Como Actif 136 / 154 40% 2 28.12.2026 -
Rayane Bounida Ajax Actif 133 / 134 40% 1 28.12.2026 -
Robert FC Copenhagen Actif 134 / 113 40% 3 20.12.2026 -
Kevin Álvarez Patriotas Actif 104 / 98 40% 1 20.12.2026 -
William Gomes Porto Actif 140 / 156 40% 1 15.12.2026 -
Patrick Preciado Deportivo Pasto Actif 103 / 120 40% 2 13.12.2026 -
David Mella Deportivo La Coruña Actif 133 / 128 40% 1 13.12.2026 -
Tristan Degreef Anderlecht Actif 121 / 120 40% 2 10.12.2026 -
Sidiki Chérif Coventry City Actif 122 / 120 40% 1 10.12.2026 -
Othmane Maamma Watford Actif 119 / 126 40% 1 07.12.2026 -
Giovanni Cantizano Rosario Central Actif 119 / 133 40% 2 23.11.2026 -
Caylan Vickers Burton Albion Actif 113 / 112 40% 1 22.11.2026 -
Valentino Acuña Newell's Old Boys Actif 107 / 108 40% 1 19.11.2026 -
Ian Garguez Palestino Actif 111 / 128 40% 1 15.11.2026 -
Lautaro Vargas Leganés Actif 117 / 137 40% 1 11.11.2026 -
Tobías Correa Gamba Osaka Actif 95 / 97 40% 1 11.11.2026 -
Arjan Malić Sturm Graz Actif 115 / 129 40% 1 09.11.2026 -
Javier Mena Portimonense Actif 117 / 128 40% 1 08.11.2026 -
El Hadji Malick Diouf Brentford Actif 141 / 133 40% 3 06.11.2026 -
Axel Frugone Defensor Sporting Actif 113 / 131 40% 1 05.10.2026 -
Simón Pinto Palestino Actif 100 / 95 40% 1 05.10.2026 -
Bianneider Tamayo Universidad de Chile Actif 114 / 99 40% 1 11.09.2026 -
Mateo Mendoza Godoy Cruz Actif 120 / 128 40% 1 10.09.2026 -
Felipe Faúndez O'Higgins Actif 94 / 124 40% 1 08.09.2026 -
Octavio Ontivero Lanús Actif 108 / 119 40% 1 25.08.2026 -
Jack Hinshelwood Brighton Actif 144 / 138 40% 1 25.08.2026 -
Alan Forneris Racing Club Actif 120 / 102 40% 1 25.08.2026 -
Mickaël Malsa Mirandés Actif 112 / 124 72% 1 10.08.2026 Approuver
Jorrel Hato Chelsea Actif 143 / 144 40% 1 10.08.2026 -
Keimer Sandoval Deportivo Cali Actif 90 / 86 40% 1 10.08.2026 -
Mateo Raschia Unión de Santa Fe Actif 97 / 77 40% 1 03.08.2026 -